Time;durP1;ratioP1;P1;durP2;ratioP2;P2;SDS_P1;SDS_P2;PMS_P1;PMS_P2;Temp;Humidity;BMP_temperature;BMP_pressure;BME280_temperature;BME280_humidity;BME280_pressure;Samples;Min_cycle;Max_cycle;Signal;HPM_P1;HPM_P2
2022/09/09 00:00:53;;;;;;;2.08;0.88;;;;;;;;;;7397369;19;19999;-70
2022/09/09 00:03:27;;;;;;;0.85;0.68;;;;;;;;;;7391540;19;20009;-71
2022/09/09 00:06:07;;;;;;;2.25;1.02;;;;;;;;;;7393600;19;20006;-71
2022/09/09 00:09:04;;;;;;;0.63;0.63;;;;;;;;;;7393752;19;19999;-71
2022/09/09 00:11:42;;;;;;;2.67;0.88;;;;;;;;;;7393201;19;20002;-71
2022/09/09 00:14:23;;;;;;;1.25;1.10;;;;;;;;;;7392468;19;20009;-71
2022/09/09 00:17:02;;;;;;;0.60;0.60;;;;;;;;;;7391886;19;20019;-71
2022/09/09 00:19:36;;;;;;;0.57;0.57;;;;;;;;;;7393567;19;19998;-71
2022/09/09 00:22:15;;;;;;;0.50;0.50;;;;;;;;;;7392778;19;20028;-71
2022/09/09 00:24:46;;;;;;;0.85;0.77;;;;;;;;;;7391777;19;20002;-70
2022/09/09 00:27:17;;;;;;;0.70;0.70;;;;;;;;;;7393143;19;20002;-71
2022/09/09 00:29:53;;;;;;;0.50;0.50;;;;;;;;;;7393281;19;19999;-70
2022/09/09 00:32:20;;;;;;;2.22;1.00;;;;;;;;;;7390810;19;19998;-71
2022/09/09 00:35:23;;;;;;;1.33;0.80;;;;;;;;;;7391130;19;20051;-71
2022/09/09 00:37:53;;;;;;;1.30;0.60;;;;;;;;;;7389145;19;20042;-72
2022/09/09 00:40:32;;;;;;;2.70;0.90;;;;;;;;;;7391109;19;20391;-71
2022/09/09 00:43:21;;;;;;;0.90;0.70;;;;;;;;;;7390845;19;19998;-71
2022/09/09 00:46:14;;;;;;;1.00;0.80;;;;;;;;;;7392827;19;19995;-70
2022/09/09 00:49:05;;;;;;;1.23;0.63;;;;;;;;;;7392164;19;20006;-70
2022/09/09 00:51:42;;;;;;;0.82;0.60;;;;;;;;;;7392253;19;19998;-70
2022/09/09 00:54:40;;;;;;;1.35;0.68;;;;;;;;;;7391025;19;20002;-72
2022/09/09 00:57:31;;;;;;;1.65;0.90;;;;;;;;;;7392527;19;20333;-71
2022/09/09 01:00:23;;;;;;;1.35;0.47;;;;;;;;;;7392076;19;20106;-71
2022/09/09 01:03:20;;;;;;;0.68;0.68;;;;;;;;;;7390040;19;20403;-72
2022/09/09 01:06:00;;;;;;;0.57;0.50;;;;;;;;;;7389018;19;20010;-71
2022/09/09 01:09:03;;;;;;;0.93;0.82;;;;;;;;;;7391505;19;19999;-71
2022/09/09 01:11:43;;;;;;;1.33;0.77;;;;;;;;;;7390931;19;19995;-71
2022/09/09 01:14:36;;;;;;;1.67;1.00;;;;;;;;;;7390417;19;20009;-70
2022/09/09 01:17:26;;;;;;;0.88;0.88;;;;;;;;;;7392179;19;20643;-71
2022/09/09 01:20:17;;;;;;;1.75;1.10;;;;;;;;;;7391056;19;20007;-71
2022/09/09 01:23:04;;;;;;;1.35;0.70;;;;;;;;;;7389972;19;20408;-70
2022/09/09 01:26:07;;;;;;;1.13;0.93;;;;;;;;;;7392957;19;20404;-71
2022/09/09 01:28:36;;;;;;;0.60;0.60;;;;;;;;;;7391466;19;20012;-70
2022/09/09 01:31:04;;;;;;;1.48;1.10;;;;;;;;;;7390581;19;20054;-69
2022/09/09 01:33:30;;;;;;;1.52;0.95;;;;;;;;;;7390990;19;20343;-71
2022/09/09 01:35:57;;;;;;;1.15;0.93;;;;;;;;;;7390321;19;19991;-70
2022/09/09 01:38:24;;;;;;;3.28;1.15;;;;;;;;;;7390650;19;20348;-70
2022/09/09 01:40:52;;;;;;;0.60;0.60;;;;;;;;;;7390327;19;19999;-71
2022/09/09 01:43:19;;;;;;;0.93;0.88;;;;;;;;;;7386825;19;19999;-71
2022/09/09 01:45:49;;;;;;;1.08;0.60;;;;;;;;;;7390254;19;20002;-70
2022/09/09 01:48:15;;;;;;;1.10;0.63;;;;;;;;;;7390063;19;20017;-71
2022/09/09 01:50:40;;;;;;;4.93;1.20;;;;;;;;;;7390121;19;20479;-71
2022/09/09 01:53:06;;;;;;;2.05;1.00;;;;;;;;;;7389857;19;20090;-71
2022/09/09 01:55:41;;;;;;;0.57;0.57;;;;;;;;;;7388025;19;20333;-71
2022/09/09 01:58:13;;;;;;;0.90;0.90;;;;;;;;;;7390146;19;19998;-71
2022/09/09 02:00:44;;;;;;;1.42;0.77;;;;;;;;;;7389772;19;20046;-71
2022/09/09 02:03:19;;;;;;;1.75;0.93;;;;;;;;;;7390498;19;20359;-71
2022/09/09 02:05:53;;;;;;;1.65;1.02;;;;;;;;;;7389934;19;19998;-71
2022/09/09 02:08:36;;;;;;;1.40;1.13;;;;;;;;;;7388209;19;20015;-70
2022/09/09 02:11:13;;;;;;;4.18;0.80;;;;;;;;;;7387884;19;20006;-71
2022/09/09 02:13:39;;;;;;;0.50;0.50;;;;;;;;;;7387484;19;20494;-71
2022/09/09 02:16:10;;;;;;;2.88;1.00;;;;;;;;;;7388737;19;20077;-71
2022/09/09 02:18:47;;;;;;;1.75;0.80;;;;;;;;;;7388077;19;20018;-69
2022/09/09 02:21:13;;;;;;;1.55;1.02;;;;;;;;;;7395931;19;19999;-70
2022/09/09 02:23:41;;;;;;;1.48;0.80;;;;;;;;;;7394567;19;19998;-70
2022/09/09 02:26:09;;;;;;;1.58;1.13;;;;;;;;;;7392416;19;20417;-71
2022/09/09 02:28:35;;;;;;;1.08;0.85;;;;;;;;;;7389638;19;20002;-71
2022/09/09 02:31:01;;;;;;;2.13;0.82;;;;;;;;;;7388847;19;20002;-69
2022/09/09 02:33:34;;;;;;;1.25;0.88;;;;;;;;;;7388848;19;20014;-72
2022/09/09 02:36:03;;;;;;;1.27;0.70;;;;;;;;;;7388944;19;20019;-71
2022/09/09 02:38:32;;;;;;;0.63;0.63;;;;;;;;;;7389282;19;20566;-71
2022/09/09 02:40:58;;;;;;;1.98;1.15;;;;;;;;;;7388676;19;20002;-70
2022/09/09 02:43:24;;;;;;;1.13;0.85;;;;;;;;;;7386304;19;20014;-70
2022/09/09 02:46:02;;;;;;;5.80;0.98;;;;;;;;;;7387162;19;19998;-70
2022/09/09 02:48:39;;;;;;;1.13;0.90;;;;;;;;;;7388618;19;19999;-70
2022/09/09 02:51:18;;;;;;;1.10;0.50;;;;;;;;;;7389040;19;19995;-70
2022/09/09 02:54:06;;;;;;;1.17;0.80;;;;;;;;;;7386417;19;20066;-71
2022/09/09 02:56:39;;;;;;;1.35;0.98;;;;;;;;;;7388315;19;20003;-70
2022/09/09 02:59:05;;;;;;;1.00;0.90;;;;;;;;;;7388106;19;20007;-70
2022/09/09 03:01:31;;;;;;;2.20;1.23;;;;;;;;;;7387578;19;20067;-70
2022/09/09 03:03:57;;;;;;;4.20;1.25;;;;;;;;;;7384744;19;20086;-71
2022/09/09 03:06:22;;;;;;;2.45;1.23;;;;;;;;;;7387710;19;20452;-70
2022/09/09 03:08:49;;;;;;;0.77;0.70;;;;;;;;;;7388088;19;19999;-71
2022/09/09 03:11:14;;;;;;;0.60;0.60;;;;;;;;;;7387369;19;20441;-70
2022/09/09 03:13:39;;;;;;;1.23;0.80;;;;;;;;;;7388332;19;20082;-70
2022/09/09 03:16:05;;;;;;;0.90;0.77;;;;;;;;;;7390432;19;20003;-71
2022/09/09 03:18:31;;;;;;;1.27;0.88;;;;;;;;;;7387354;19;20072;-70
2022/09/09 03:20:58;;;;;;;0.85;0.75;;;;;;;;;;7387189;19;20027;-70
2022/09/09 03:23:24;;;;;;;0.63;0.63;;;;;;;;;;7386557;19;20013;-71
2022/09/09 03:25:51;;;;;;;1.55;1.02;;;;;;;;;;7387584;19;20002;-71
2022/09/09 03:28:16;;;;;;;1.63;0.90;;;;;;;;;;7387450;19;20019;-69
2022/09/09 03:30:41;;;;;;;1.65;0.85;;;;;;;;;;7392999;19;20011;-71
2022/09/09 03:33:07;;;;;;;4.05;0.90;;;;;;;;;;7393978;19;19995;-71
2022/09/09 03:35:32;;;;;;;0.88;0.73;;;;;;;;;;7394936;19;20002;-71
2022/09/09 03:37:57;;;;;;;1.42;0.95;;;;;;;;;;7394717;19;20560;-69
2022/09/09 03:40:23;;;;;;;0.82;0.82;;;;;;;;;;7394441;19;20531;-71
2022/09/09 03:42:48;;;;;;;1.13;0.82;;;;;;;;;;7390961;19;20003;-71
2022/09/09 03:45:14;;;;;;;1.35;0.90;;;;;;;;;;7389700;19;20007;-71
2022/09/09 03:47:39;;;;;;;1.25;0.93;;;;;;;;;;7394112;19;20003;-71
2022/09/09 03:50:10;;;;;;;2.35;0.85;;;;;;;;;;7394267;19;19994;-72
2022/09/09 03:52:37;;;;;;;2.03;0.90;;;;;;;;;;7393409;19;20013;-69
2022/09/09 03:55:03;;;;;;;1.48;1.00;;;;;;;;;;7391439;19;20007;-71
2022/09/09 03:57:29;;;;;;;0.65;0.65;;;;;;;;;;7393735;19;20091;-71
2022/09/09 03:59:55;;;;;;;2.65;1.10;;;;;;;;;;7394091;19;20109;-71
2022/09/09 04:02:21;;;;;;;0.57;0.57;;;;;;;;;;7393438;19;20049;-70
2022/09/09 04:04:46;;;;;;;0.65;0.65;;;;;;;;;;7390278;19;20314;-71
2022/09/09 04:07:11;;;;;;;0.90;0.90;;;;;;;;;;7393363;19;19995;-70
2022/09/09 04:09:37;;;;;;;1.23;1.00;;;;;;;;;;7393497;19;20066;-71
2022/09/09 04:12:02;;;;;;;0.95;0.93;;;;;;;;;;7392910;19;20002;-71
2022/09/09 04:14:28;;;;;;;1.33;1.23;;;;;;;;;;7395481;19;20006;-71
2022/09/09 04:16:54;;;;;;;1.10;1.00;;;;;;;;;;7393601;19;20002;-69
2022/09/09 04:19:19;;;;;;;2.35;1.00;;;;;;;;;;7391582;19;19999;-71
2022/09/09 04:21:44;;;;;;;2.88;1.10;;;;;;;;;;7392631;19;20019;-70
2022/09/09 04:24:10;;;;;;;1.23;0.73;;;;;;;;;;7390762;19;20020;-72
2022/09/09 04:26:36;;;;;;;4.22;1.15;;;;;;;;;;7393165;19;20032;-70
2022/09/09 04:29:02;;;;;;;2.75;0.80;;;;;;;;;;7391616;19;20360;-71
2022/09/09 04:31:27;;;;;;;0.75;0.75;;;;;;;;;;7395099;19;19999;-70
2022/09/09 04:33:53;;;;;;;1.38;0.80;;;;;;;;;;7393059;19;20003;-69
2022/09/09 04:36:19;;;;;;;3.03;0.70;;;;;;;;;;7395118;19;20463;-71
2022/09/09 04:38:45;;;;;;;0.68;0.68;;;;;;;;;;7397367;19;20017;-71
2022/09/09 04:41:11;;;;;;;1.02;0.80;;;;;;;;;;7395394;19;20009;-71
2022/09/09 04:43:37;;;;;;;1.15;0.80;;;;;;;;;;7395264;19;20003;-72
2022/09/09 04:46:03;;;;;;;0.88;0.88;;;;;;;;;;7397346;19;19994;-71
2022/09/09 04:48:28;;;;;;;1.00;0.65;;;;;;;;;;7397703;19;20004;-71
2022/09/09 04:51:04;;;;;;;1.23;1.10;;;;;;;;;;7396639;19;20014;-70
2022/09/09 04:53:30;;;;;;;0.68;0.68;;;;;;;;;;7394318;19;20456;-70
2022/09/09 04:56:07;;;;;;;1.20;0.75;;;;;;;;;;7393119;19;20384;-72
2022/09/09 04:58:35;;;;;;;0.43;0.43;;;;;;;;;;7393452;19;19995;-72
2022/09/09 05:01:05;;;;;;;0.95;0.80;;;;;;;;;;7393034;19;20455;-70
2022/09/09 05:03:33;;;;;;;1.27;0.85;;;;;;;;;;7391173;19;19999;-70
2022/09/09 05:06:08;;;;;;;0.88;0.57;;;;;;;;;;7394405;19;20009;-70
2022/09/09 05:08:34;;;;;;;2.05;0.85;;;;;;;;;;7395246;19;20026;-71
2022/09/09 05:10:59;;;;;;;0.38;0.38;;;;;;;;;;7391502;19;20002;-71
2022/09/09 05:13:26;;;;;;;0.88;0.68;;;;;;;;;;7393751;19;19997;-71
2022/09/09 05:15:55;;;;;;;0.57;0.55;;;;;;;;;;7393229;19;20006;-71
2022/09/09 05:18:22;;;;;;;2.95;0.88;;;;;;;;;;7395660;19;20010;-71
2022/09/09 05:20:48;;;;;;;0.70;0.70;;;;;;;;;;7393415;19;20451;-71
2022/09/09 05:23:13;;;;;;;0.85;0.82;;;;;;;;;;7392060;19;19999;-72
2022/09/09 05:25:39;;;;;;;0.65;0.60;;;;;;;;;;7394341;19;20042;-71
2022/09/09 05:28:07;;;;;;;0.75;0.68;;;;;;;;;;7393493;19;20010;-71
2022/09/09 05:30:32;;;;;;;0.85;0.35;;;;;;;;;;7393868;19;19995;-71
2022/09/09 05:32:57;;;;;;;0.65;0.65;;;;;;;;;;7392085;19;20005;-71
2022/09/09 05:35:23;;;;;;;2.08;0.70;;;;;;;;;;7392911;19;19998;-71
2022/09/09 05:37:48;;;;;;;0.50;0.50;;;;;;;;;;7393995;19;19998;-70
2022/09/09 05:40:14;;;;;;;0.60;0.60;;;;;;;;;;7394857;19;20009;-71
2022/09/09 05:42:40;;;;;;;2.05;1.20;;;;;;;;;;7390826;19;20572;-71
2022/09/09 05:45:16;;;;;;;0.73;0.68;;;;;;;;;;7389409;19;20038;-71
2022/09/09 05:47:44;;;;;;;1.27;1.17;;;;;;;;;;7392329;19;20006;-74
2022/09/09 05:50:09;;;;;;;2.45;0.90;;;;;;;;;;7393828;19;20532;-71
2022/09/09 05:52:35;;;;;;;1.13;0.90;;;;;;;;;;7389164;19;19998;-71
2022/09/09 05:55:00;;;;;;;1.17;0.73;;;;;;;;;;7391233;19;20023;-71
2022/09/09 05:57:25;;;;;;;0.77;0.77;;;;;;;;;;7392678;19;20016;-70
2022/09/09 05:59:54;;;;;;;0.85;0.50;;;;;;;;;;7393932;19;19999;-69
2022/09/09 06:02:19;;;;;;;0.70;0.70;;;;;;;;;;7391645;19;20006;-71
2022/09/09 06:04:47;;;;;;;0.82;0.82;;;;;;;;;;7391739;19;19998;-69
2022/09/09 06:07:14;;;;;;;0.60;0.45;;;;;;;;;;7387423;19;19998;-69
2022/09/09 06:09:39;;;;;;;0.95;0.60;;;;;;;;;;7390436;19;20058;-70
2022/09/09 06:12:05;;;;;;;0.68;0.68;;;;;;;;;;7392617;19;19994;-71
2022/09/09 06:14:30;;;;;;;2.80;1.10;;;;;;;;;;7390595;19;19999;-70
2022/09/09 06:16:56;;;;;;;0.60;0.60;;;;;;;;;;7392193;19;20003;-69
2022/09/09 06:19:23;;;;;;;0.60;0.60;;;;;;;;;;7392269;19;20005;-73
2022/09/09 06:21:48;;;;;;;1.35;0.85;;;;;;;;;;7391540;19;20549;-70
2022/09/09 06:24:17;;;;;;;2.03;0.93;;;;;;;;;;7392398;19;20095;-70
2022/09/09 06:26:42;;;;;;;0.60;0.60;;;;;;;;;;7389472;19;20028;-70
2022/09/09 06:29:08;;;;;;;1.73;1.00;;;;;;;;;;7391968;19;20460;-70
2022/09/09 06:31:36;;;;;;;1.13;0.98;;;;;;;;;;7391776;19;20044;-70
2022/09/09 06:34:04;;;;;;;0.60;0.60;;;;;;;;;;7395076;19;20006;-70
2022/09/09 06:36:35;;;;;;;2.42;0.60;;;;;;;;;;7393920;19;19999;-71
2022/09/09 06:39:01;;;;;;;0.38;0.38;;;;;;;;;;7391389;19;20032;-71
2022/09/09 06:41:28;;;;;;;0.88;0.70;;;;;;;;;;7388060;19;20455;-70
2022/09/09 06:43:55;;;;;;;1.58;0.80;;;;;;;;;;7388320;19;20003;-70
2022/09/09 06:46:29;;;;;;;2.20;0.70;;;;;;;;;;7391365;19;20045;-71
2022/09/09 06:48:55;;;;;;;0.60;0.60;;;;;;;;;;7389668;19;20035;-70
2022/09/09 06:51:23;;;;;;;2.30;0.95;;;;;;;;;;7386406;19;20031;-71
2022/09/09 06:53:53;;;;;;;0.60;0.60;;;;;;;;;;7385872;19;20027;-70
2022/09/09 06:56:22;;;;;;;2.42;0.80;;;;;;;;;;7389507;19;20019;-70
2022/09/09 06:58:49;;;;;;;1.20;0.80;;;;;;;;;;7391139;19;19998;-69
2022/09/09 07:01:23;;;;;;;1.20;0.65;;;;;;;;;;7390748;19;20054;-69
2022/09/09 07:03:51;;;;;;;0.80;0.80;;;;;;;;;;7386161;19;20131;-68
2022/09/09 07:06:30;;;;;;;2.80;0.85;;;;;;;;;;7390069;19;20348;-69
2022/09/09 07:09:04;;;;;;;1.02;0.90;;;;;;;;;;7389883;19;19999;-69
2022/09/09 07:11:32;;;;;;;1.15;1.00;;;;;;;;;;7389647;19;20475;-69
2022/09/09 07:13:59;;;;;;;0.80;0.68;;;;;;;;;;7388458;19;20015;-69
2022/09/09 07:16:27;;;;;;;2.58;0.90;;;;;;;;;;7389747;19;20511;-69
2022/09/09 07:18:57;;;;;;;3.13;1.17;;;;;;;;;;7390116;19;20010;-69
2022/09/09 07:21:24;;;;;;;1.67;0.77;;;;;;;;;;7388733;19;20071;-69
2022/09/09 07:23:50;;;;;;;1.63;0.90;;;;;;;;;;7388572;19;20408;-69
2022/09/09 07:26:19;;;;;;;1.35;0.85;;;;;;;;;;7384252;19;20027;-69
2022/09/09 07:28:45;;;;;;;0.55;0.55;;;;;;;;;;7388950;19;20543;-69
2022/09/09 07:31:24;;;;;;;1.77;0.82;;;;;;;;;;7386737;19;20006;-69
2022/09/09 07:33:50;;;;;;;1.02;0.80;;;;;;;;;;7372070;19;20442;-68
2022/09/09 07:36:21;;;;;;;2.42;0.95;;;;;;;;;;7382183;19;20036;-68
2022/09/09 07:38:51;;;;;;;1.55;1.05;;;;;;;;;;7378942;19;19998;-69
2022/09/09 07:41:20;;;;;;;1.13;0.98;;;;;;;;;;7380906;19;20010;-68
2022/09/09 07:43:47;;;;;;;2.30;0.98;;;;;;;;;;7381221;19;20478;-68
2022/09/09 07:46:14;;;;;;;2.55;1.02;;;;;;;;;;7383411;19;20009;-67
2022/09/09 07:48:44;;;;;;;0.63;0.63;;;;;;;;;;7367902;19;20194;-68
2022/09/09 07:51:19;;;;;;;1.55;0.88;;;;;;;;;;7378831;19;20026;-67
2022/09/09 07:53:46;;;;;;;0.98;0.90;;;;;;;;;;7379341;19;19998;-69
2022/09/09 07:56:14;;;;;;;3.80;1.02;;;;;;;;;;7384631;19;20457;-69
2022/09/09 07:58:40;;;;;;;6.65;1.17;;;;;;;;;;7382614;19;20725;-70
2022/09/09 08:01:08;;;;;;;1.95;1.10;;;;;;;;;;7386588;19;20003;-70
2022/09/09 08:03:34;;;;;;;2.88;1.05;;;;;;;;;;7385628;19;20424;-69
2022/09/09 08:06:04;;;;;;;3.13;1.27;;;;;;;;;;7384353;19;20003;-70
2022/09/09 08:08:30;;;;;;;1.55;1.30;;;;;;;;;;7382397;19;20001;-69
2022/09/09 08:11:09;;;;;;;2.42;1.30;;;;;;;;;;7383325;19;19991;-70
2022/09/09 08:13:36;;;;;;;1.02;0.93;;;;;;;;;;7380513;19;20030;-70
2022/09/09 08:16:08;;;;;;;0.88;0.88;;;;;;;;;;7387648;19;20040;-70
2022/09/09 08:18:34;;;;;;;3.97;1.38;;;;;;;;;;7388470;19;20002;-69
2022/09/09 08:21:12;;;;;;;3.58;1.23;;;;;;;;;;7390559;19;20354;-70
2022/09/09 08:23:42;;;;;;;1.65;1.10;;;;;;;;;;7391227;19;20004;-67
2022/09/09 08:26:13;;;;;;;0.95;0.95;;;;;;;;;;7393088;19;20035;-70
2022/09/09 08:28:40;;;;;;;2.83;1.15;;;;;;;;;;7391337;19;19995;-70
2022/09/09 08:31:11;;;;;;;1.80;1.13;;;;;;;;;;7392725;19;20007;-70
2022/09/09 08:33:38;;;;;;;2.88;1.25;;;;;;;;;;7392667;19;20015;-70
2022/09/09 08:36:04;;;;;;;2.65;1.35;;;;;;;;;;7393086;19;20451;-69
2022/09/09 08:38:29;;;;;;;3.28;1.02;;;;;;;;;;7392545;19;19995;-70
2022/09/09 08:41:06;;;;;;;1.77;1.30;;;;;;;;;;7393188;19;19995;-70
2022/09/09 08:43:33;;;;;;;1.02;0.93;;;;;;;;;;7391057;19;19995;-69
2022/09/09 08:46:20;;;;;;;1.23;0.90;;;;;;;;;;7389336;19;20009;-69
2022/09/09 08:49:39;;;;;;;0.70;0.70;;;;;;;;;;7390234;19;20502;-69
2022/09/09 08:52:15;;;;;;;1.27;0.98;;;;;;;;;;7389607;19;19998;-69
2022/09/09 08:54:41;;;;;;;3.60;1.35;;;;;;;;;;7393716;19;20466;-69
2022/09/09 08:57:19;;;;;;;1.65;1.00;;;;;;;;;;7390557;19;19999;-69
2022/09/09 08:59:45;;;;;;;1.10;0.90;;;;;;;;;;7390333;19;20007;-70
2022/09/09 09:02:37;;;;;;;3.38;1.10;;;;;;;;;;7385015;19;19998;-69
2022/09/09 09:05:07;;;;;;;1.17;0.90;;;;;;;;;;7392054;19;19995;-68
2022/09/09 09:07:55;;;;;;;1.95;1.20;;;;;;;;;;7388495;19;19987;-69
2022/09/09 09:10:44;;;;;;;1.85;1.10;;;;;;;;;;7393533;19;20354;-68
2022/09/09 09:13:36;;;;;;;1.98;0.80;;;;;;;;;;7393024;19;20002;-69
2022/09/09 09:16:30;;;;;;;2.08;0.85;;;;;;;;;;7386849;19;20014;-71
2022/09/09 09:18:57;;;;;;;0.68;0.47;;;;;;;;;;7381935;19;20105;-68
2022/09/09 09:21:36;;;;;;;2.78;1.00;;;;;;;;;;7391624;19;20030;-70
2022/09/09 09:24:03;;;;;;;2.28;0.80;;;;;;;;;;7390632;19;20070;-70
2022/09/09 09:26:35;;;;;;;2.38;1.05;;;;;;;;;;7388656;19;20326;-69
2022/09/09 09:29:09;;;;;;;0.60;0.60;;;;;;;;;;7387445;19;20019;-70
2022/09/09 09:31:35;;;;;;;1.45;0.98;;;;;;;;;;7392406;19;20002;-68
2022/09/09 09:34:02;;;;;;;2.70;1.13;;;;;;;;;;7388407;19;20026;-72
2022/09/09 09:36:49;;;;;;;1.63;0.82;;;;;;;;;;7385420;19;20002;-69
2022/09/09 09:39:29;;;;;;;1.13;0.68;;;;;;;;;;7388452;19;20066;-69
2022/09/09 09:41:56;;;;;;;4.70;0.93;;;;;;;;;;7387867;19;19998;-70
2022/09/09 09:44:32;;;;;;;0.70;0.65;;;;;;;;;;7389751;19;20003;-74
2022/09/09 09:47:08;;;;;;;2.45;1.10;;;;;;;;;;7390386;19;20003;-70
2022/09/09 09:49:34;;;;;;;1.80;0.82;;;;;;;;;;7391627;19;20011;-69
2022/09/09 09:52:07;;;;;;;1.05;0.63;;;;;;;;;;7387525;19;20555;-70
2022/09/09 09:54:37;;;;;;;2.47;0.90;;;;;;;;;;7388941;19;20006;-68
2022/09/09 09:57:14;;;;;;;0.45;0.45;;;;;;;;;;7390551;19;20142;-68
2022/09/09 09:59:40;;;;;;;4.38;0.90;;;;;;;;;;7391396;19;20005;-70
2022/09/09 10:02:13;;;;;;;0.70;0.70;;;;;;;;;;7387240;19;19998;-70
2022/09/09 10:04:38;;;;;;;0.85;0.82;;;;;;;;;;7389310;19;20320;-70
2022/09/09 10:07:12;;;;;;;1.48;0.63;;;;;;;;;;7388349;19;20001;-69
2022/09/09 10:09:37;;;;;;;3.08;0.90;;;;;;;;;;7392405;19;20002;-69
2022/09/09 10:12:19;;;;;;;2.03;1.00;;;;;;;;;;7389573;19;19990;-70
2022/09/09 10:14:53;;;;;;;0.40;0.40;;;;;;;;;;7392013;19;19994;-69
2022/09/09 10:17:49;;;;;;;1.13;0.73;;;;;;;;;;7388974;19;20208;-70
2022/09/09 10:20:30;;;;;;;1.13;0.80;;;;;;;;;;7388486;19;19990;-68
2022/09/09 10:23:51;;;;;;;1.77;0.90;;;;;;;;;;7390051;19;20470;-68
2022/09/09 10:26:19;;;;;;;0.52;0.52;;;;;;;;;;7386668;19;20451;-68
2022/09/09 10:29:01;;;;;;;1.13;0.88;;;;;;;;;;7388313;19;19999;-70
2022/09/09 10:31:39;;;;;;;1.48;0.75;;;;;;;;;;7390371;19;20062;-69
2022/09/09 10:34:26;;;;;;;1.75;0.88;;;;;;;;;;7390237;19;19994;-69
2022/09/09 10:36:52;;;;;;;2.35;0.93;;;;;;;;;;7384705;19;19995;-69
2022/09/09 10:39:40;;;;;;;2.58;1.02;;;;;;;;;;7389671;19;19998;-69
2022/09/09 10:42:16;;;;;;;2.63;0.70;;;;;;;;;;7386756;19;19994;-68
2022/09/09 10:44:48;;;;;;;2.47;0.93;;;;;;;;;;7388800;19;20016;-68
2022/09/09 10:47:38;;;;;;;0.52;0.52;;;;;;;;;;7389239;19;19994;-68
2022/09/09 10:50:23;;;;;;;1.20;0.65;;;;;;;;;;7388825;19;19998;-68
2022/09/09 10:52:59;;;;;;;0.82;0.55;;;;;;;;;;7389439;19;20002;-68
2022/09/09 10:55:30;;;;;;;0.75;0.70;;;;;;;;;;7389709;19;20018;-68
2022/09/09 10:57:58;;;;;;;1.67;0.90;;;;;;;;;;7389099;19;20018;-68
2022/09/09 11:00:30;;;;;;;2.05;0.98;;;;;;;;;;7386071;19;20018;-69
2022/09/09 11:03:04;;;;;;;1.25;0.90;;;;;;;;;;7381531;19;20019;-69
2022/09/09 11:05:43;;;;;;;2.50;1.10;;;;;;;;;;7387950;19;20010;-68
2022/09/09 11:08:20;;;;;;;1.73;0.80;;;;;;;;;;7389414;19;20011;-70
2022/09/09 11:11:17;;;;;;;0.95;0.80;;;;;;;;;;7387338;19;20503;-70
2022/09/09 11:13:52;;;;;;;0.77;0.77;;;;;;;;;;7389312;19;20694;-70
2022/09/09 11:16:41;;;;;;;2.17;0.77;;;;;;;;;;7388283;19;20006;-69
2022/09/09 11:19:54;;;;;;;1.67;0.80;;;;;;;;;;7388906;19;20003;-69
2022/09/09 11:22:32;;;;;;;2.30;0.82;;;;;;;;;;7385554;19;20247;-69
2022/09/09 11:25:15;;;;;;;0.63;0.63;;;;;;;;;;7390219;19;20017;-69
2022/09/09 11:27:59;;;;;;;0.95;0.60;;;;;;;;;;7385775;19;19999;-69
2022/09/09 11:30:56;;;;;;;1.23;0.80;;;;;;;;;;7388900;19;20007;-69
2022/09/09 11:33:28;;;;;;;1.27;0.65;;;;;;;;;;7384447;19;20066;-69
2022/09/09 11:36:10;;;;;;;2.30;0.65;;;;;;;;;;7381521;19;20007;-69
2022/09/09 11:38:47;;;;;;;1.92;0.47;;;;;;;;;;7385161;19;20003;-69
2022/09/09 11:41:14;;;;;;;1.48;0.65;;;;;;;;;;7387888;19;20013;-69
2022/09/09 11:43:48;;;;;;;0.88;0.65;;;;;;;;;;7386536;19;20055;-69
2022/09/09 11:46:17;;;;;;;4.15;0.80;;;;;;;;;;7384935;19;20479;-69
2022/09/09 11:48:58;;;;;;;1.50;0.75;;;;;;;;;;7389607;19;20588;-69
2022/09/09 11:51:24;;;;;;;0.75;0.63;;;;;;;;;;7393427;19;19998;-69
2022/09/09 11:54:04;;;;;;;1.33;0.80;;;;;;;;;;7394792;19;20463;-69
2022/09/09 11:56:30;;;;;;;;;;;;;;;;;;7395820;19;20283;-69
2022/09/09 11:59:19;;;;;;;0.65;0.60;;;;;;;;;;7396385;19;19919;-69
2022/09/09 12:01:49;;;;;;;1.95;0.73;;;;;;;;;;7393928;19;20014;-69
2022/09/09 12:04:17;;;;;;;1.40;0.63;;;;;;;;;;7390368;19;20564;-69
2022/09/09 12:06:46;;;;;;;1.05;0.60;;;;;;;;;;7395175;19;19999;-69
2022/09/09 12:09:23;;;;;;;2.10;0.73;;;;;;;;;;7392333;19;20019;-69
2022/09/09 12:11:49;;;;;;;2.67;0.77;;;;;;;;;;7392685;19;20013;-69
2022/09/09 12:14:34;;;;;;;0.82;0.55;;;;;;;;;;7395438;19;20003;-69
2022/09/09 12:17:22;;;;;;;0.43;0.38;;;;;;;;;;7394673;19;20098;-69
2022/09/09 12:20:04;;;;;;;1.08;0.63;;;;;;;;;;7392212;19;20435;-69
2022/09/09 12:22:35;;;;;;;0.93;0.63;;;;;;;;;;7393534;19;19994;-69
2022/09/09 12:25:28;;;;;;;0.30;0.30;;;;;;;;;;7396438;19;20009;-69
2022/09/09 12:28:17;;;;;;;2.28;0.68;;;;;;;;;;7395810;19;20022;-69
2022/09/09 12:31:05;;;;;;;1.30;1.17;;;;;;;;;;7395300;19;20013;-69
2022/09/09 12:33:43;;;;;;;0.55;0.43;;;;;;;;;;7393755;19;20039;-69
2022/09/09 12:36:14;;;;;;;1.38;0.75;;;;;;;;;;7393845;19;20003;-69
2022/09/09 12:38:41;;;;;;;2.00;0.85;;;;;;;;;;7395190;19;20527;-69
2022/09/09 12:41:23;;;;;;;1.00;0.55;;;;;;;;;;7395440;19;20352;-69
2022/09/09 12:43:50;;;;;;;1.42;0.70;;;;;;;;;;7391389;19;20002;-69
2022/09/09 12:46:36;;;;;;;2.47;0.70;;;;;;;;;;7392666;19;20077;-69
2022/09/09 12:49:02;;;;;;;1.85;0.93;;;;;;;;;;7394993;19;20451;-69
2022/09/09 12:51:30;;;;;;;0.63;0.63;;;;;;;;;;7390717;19;20105;-68
2022/09/09 12:53:56;;;;;;;0.47;0.47;;;;;;;;;;7392222;19;20013;-68
2022/09/09 12:56:26;;;;;;;2.53;0.80;;;;;;;;;;7388444;19;20002;-69
2022/09/09 12:58:53;;;;;;;0.55;0.50;;;;;;;;;;7391378;19;20073;-68
2022/09/09 13:01:21;;;;;;;0.90;0.52;;;;;;;;;;7393537;19;20002;-69
2022/09/09 13:03:47;;;;;;;0.50;0.50;;;;;;;;;;7389429;19;20389;-69
2022/09/09 13:06:18;;;;;;;3.50;0.98;;;;;;;;;;7391700;19;19994;-69
2022/09/09 13:08:44;;;;;;;0.30;0.30;;;;;;;;;;7394558;19;19998;-69
2022/09/09 13:11:32;;;;;;;0.68;0.50;;;;;;;;;;7392978;19;20030;-69
2022/09/09 13:13:58;;;;;;;0.30;0.30;;;;;;;;;;7389888;19;20003;-73
2022/09/09 13:16:31;;;;;;;0.98;0.45;;;;;;;;;;7390453;19;20027;-72
2022/09/09 13:19:00;;;;;;;0.30;0.30;;;;;;;;;;7394738;19;20083;-72
2022/09/09 13:21:37;;;;;;;0.30;0.30;;;;;;;;;;7391589;19;19995;-73
2022/09/09 13:24:23;;;;;;;0.60;0.40;;;;;;;;;;7391994;19;20011;-71
2022/09/09 13:27:01;;;;;;;0.50;0.40;;;;;;;;;;7394521;19;20070;-72
2022/09/09 13:29:27;;;;;;;0.50;0.40;;;;;;;;;;7393960;19;20494;-71
2022/09/09 13:31:53;;;;;;;0.30;0.30;;;;;;;;;;7391455;19;20225;-72
2022/09/09 13:34:30;;;;;;;0.38;0.35;;;;;;;;;;7378783;19;20083;-71
2022/09/09 13:37:02;;;;;;;0.28;0.28;;;;;;;;;;7392589;19;20007;-71
2022/09/09 13:39:28;;;;;;;0.20;0.20;;;;;;;;;;7391571;19;20002;-72
2022/09/09 13:41:53;;;;;;;1.10;0.45;;;;;;;;;;7391139;19;20006;-71
2022/09/09 13:44:26;;;;;;;1.85;0.35;;;;;;;;;;7390708;19;20467;-72
2022/09/09 13:47:21;;;;;;;0.57;0.32;;;;;;;;;;7390320;19;20003;-71
2022/09/09 13:49:47;;;;;;;3.42;0.95;;;;;;;;;;7391734;19;20003;-71
2022/09/09 13:52:16;;;;;;;1.95;0.40;;;;;;;;;;7390188;19;20026;-70
2022/09/09 13:54:42;;;;;;;0.57;0.43;;;;;;;;;;7393191;19;20014;-72
2022/09/09 13:57:18;;;;;;;0.52;0.45;;;;;;;;;;7394157;19;20400;-71
2022/09/09 13:59:44;;;;;;;0.57;0.47;;;;;;;;;;7391745;19;20015;-73
2022/09/09 14:02:10;;;;;;;1.45;0.63;;;;;;;;;;7391556;19;20006;-71
2022/09/09 14:04:35;;;;;;;1.85;0.63;;;;;;;;;;7389607;19;20336;-72
2022/09/09 14:07:02;;;;;;;0.50;0.50;;;;;;;;;;7393316;19;20074;-72
2022/09/09 14:09:27;;;;;;;1.35;0.40;;;;;;;;;;7392520;19;19998;-72
2022/09/09 14:11:53;;;;;;;0.65;0.38;;;;;;;;;;7390541;19;20001;-71
2022/09/09 14:14:18;;;;;;;0.75;0.32;;;;;;;;;;7389636;19;20010;-72
2022/09/09 14:16:44;;;;;;;0.20;0.20;;;;;;;;;;7393893;19;20452;-72
2022/09/09 14:19:09;;;;;;;0.40;0.38;;;;;;;;;;7390947;19;20010;-72
2022/09/09 14:21:35;;;;;;;0.47;0.47;;;;;;;;;;7387683;19;20010;-72
2022/09/09 14:24:01;;;;;;;2.90;0.63;;;;;;;;;;7389033;19;19994;-72
2022/09/09 14:26:28;;;;;;;0.75;0.50;;;;;;;;;;7391569;19;20523;-72
2022/09/09 14:28:54;;;;;;;0.45;0.40;;;;;;;;;;7391425;19;20003;-72
2022/09/09 14:31:19;;;;;;;1.70;0.65;;;;;;;;;;7391840;19;20401;-71
2022/09/09 14:33:45;;;;;;;2.58;0.90;;;;;;;;;;7388761;19;20068;-72
2022/09/09 14:36:10;;;;;;;1.15;0.75;;;;;;;;;;7390887;19;20002;-71
2022/09/09 14:38:41;;;;;;;0.30;0.30;;;;;;;;;;7392867;19;20061;-72
2022/09/09 14:41:10;;;;;;;1.05;0.75;;;;;;;;;;7390760;19;20479;-72
2022/09/09 14:43:38;;;;;;;0.40;0.40;;;;;;;;;;7387905;19;20062;-72
2022/09/09 14:46:08;;;;;;;0.82;0.60;;;;;;;;;;7388917;19;20038;-72
2022/09/09 14:48:34;;;;;;;3.30;0.88;;;;;;;;;;7391985;19;20013;-72
2022/09/09 14:51:12;;;;;;;2.63;0.50;;;;;;;;;;7392024;19;20001;-72
2022/09/09 14:53:38;;;;;;;0.75;0.68;;;;;;;;;;7384551;19;20405;-72
2022/09/09 14:56:05;;;;;;;2.05;0.60;;;;;;;;;;7389739;19;20005;-72
2022/09/09 14:58:31;;;;;;;0.43;0.43;;;;;;;;;;7390541;19;19991;-72
2022/09/09 15:01:03;;;;;;;1.60;0.43;;;;;;;;;;7391230;19;20017;-72
2022/09/09 15:03:28;;;;;;;1.15;0.82;;;;;;;;;;7387093;19;20058;-72
2022/09/09 15:05:53;;;;;;;1.33;0.60;;;;;;;;;;7389075;19;20831;-72
2022/09/09 15:08:19;;;;;;;1.23;0.68;;;;;;;;;;7390501;19;20046;-72
2022/09/09 15:10:47;;;;;;;1.60;0.90;;;;;;;;;;7391296;19;20001;-72
2022/09/09 15:13:14;;;;;;;5.30;2.20;;;;;;;;;;7389572;19;19998;-72